Time;durP1;ratioP1;P1;durP2;ratioP2;P2;SDS_P1;SDS_P2;PMS_P1;PMS_P2;Temp;Humidity;BMP_temperature;BMP_pressure;BME280_temperature;BME280_humidity;BME280_pressure;Samples;Min_cycle;Max_cycle;Signal;HPM_P1;HPM_P2
2023/07/01 00:00:27;;;;;;;;;;;17.70;96.70;;;;;;5099725;27;19989;-74
2023/07/01 00:02:53;;;;;;;;;;;17.70;96.50;;;;;;5107006;28;19924;-74
2023/07/01 00:05:19;;;;;;;;;;;17.70;96.50;;;;;;5086055;28;19926;-76
2023/07/01 00:07:45;;;;;;;;;;;17.70;96.30;;;;;;5082092;28;19930;-76
2023/07/01 00:10:10;;;;;;;;;;;17.70;96.30;;;;;;5083770;28;20022;-75
2023/07/01 00:12:36;;;;;;;;;;;17.70;96.30;;;;;;5091505;28;19953;-76
2023/07/01 00:15:02;;;;;;;;;;;17.70;96.30;;;;;;5099023;28;19973;-76
2023/07/01 00:17:28;;;;;;;;;;;17.70;96.30;;;;;;5112196;27;19964;-76
2023/07/01 00:19:53;;;;;;;;;;;17.70;96.30;;;;;;5079017;28;19920;-75
2023/07/01 00:22:19;;;;;;;;;;;17.70;96.40;;;;;;5107349;27;20021;-76
2023/07/01 00:24:44;;;;;;;;;;;17.70;96.30;;;;;;5100807;28;19959;-75
2023/07/01 00:27:10;;;;;;;;;;;17.70;96.30;;;;;;5102998;28;19920;-76
2023/07/01 00:29:35;;;;;;;;;;;17.70;96.40;;;;;;5103217;28;19920;-77
2023/07/01 00:32:01;;;;;;;;;;;17.70;96.20;;;;;;5080070;28;19927;-76
2023/07/01 00:34:27;;;;;;;;;;;17.70;96.20;;;;;;5112353;27;20305;-76
2023/07/01 00:36:52;;;;;;;;;;;17.60;96.30;;;;;;5113242;28;20369;-77
2023/07/01 00:39:18;;;;;;;;;;;17.70;96.30;;;;;;5085143;28;19966;-75
2023/07/01 00:41:45;;;;;;;;;;;17.60;96.30;;;;;;5103115;28;20016;-76
2023/07/01 00:44:10;;;;;;;;;;;17.60;96.40;;;;;;5104266;28;19920;-75
2023/07/01 00:46:36;;;;;;;;;;;17.80;96.40;;;;;;5109086;28;19926;-76
2023/07/01 00:49:01;;;;;;;;;;;17.60;96.50;;;;;;5100528;28;19927;-77
2023/07/01 00:51:28;;;;;;;;;;;17.60;96.50;;;;;;5113807;27;20478;-76
2023/07/01 00:53:54;;;;;;;;;;;17.60;96.70;;;;;;5110815;28;19924;-76
2023/07/01 00:56:20;;;;;;;;;;;17.70;96.70;;;;;;5114479;27;19972;-74
2023/07/01 00:58:45;;;;;;;;;;;17.60;96.90;;;;;;5124792;27;19967;-76
2023/07/01 01:01:13;;;;;;;;;;;17.60;96.90;;;;;;5109151;27;19973;-76
2023/07/01 01:03:45;;;;;;;;;;;17.60;97.10;;;;;;5119031;27;19971;-75
2023/07/01 01:06:16;;;;;;;;;;;17.60;97.10;;;;;;5107111;27;19919;-76
2023/07/01 01:08:51;;;;;;;;;;;17.60;97.20;;;;;;5088408;28;19920;-77
2023/07/01 01:11:20;;;;;;;;;;;17.60;97.40;;;;;;5107301;27;20002;-74
2023/07/01 01:13:46;;;;;;;;;;;17.60;97.50;;;;;;5085613;28;20361;-75
2023/07/01 01:16:12;;;;;;;;;;;17.60;97.40;;;;;;5122005;27;19966;-76
2023/07/01 01:18:41;;;;;;;;;;;17.60;97.50;;;;;;5103121;28;19970;-76
2023/07/01 01:21:07;;;;;;;;;;;17.60;97.70;;;;;;5101456;28;20497;-76
2023/07/01 01:23:36;;;;;;;;;;;17.60;97.70;;;;;;5106975;28;19927;-76
2023/07/01 01:26:07;;;;;;;;;;;17.60;97.80;;;;;;5095567;28;20334;-76
2023/07/01 01:28:36;;;;;;;;;;;17.60;97.90;;;;;;5102820;28;19927;-75
2023/07/01 01:31:02;;;;;;;;;;;17.60;98.00;;;;;;5110830;28;21504;-76
2023/07/01 01:33:28;;;;;;;;;;;17.50;98.20;;;;;;5126424;28;20022;-75
2023/07/01 01:35:56;;;;;;;;;;;17.60;98.30;;;;;;5119126;28;19965;-75
2023/07/01 01:38:24;;;;;;;;;;;17.60;98.60;;;;;;5104064;28;20373;-74
2023/07/01 01:41:00;;;;;;;;;;;17.60;99.10;;;;;;5099164;28;20316;-75
2023/07/01 01:43:30;;;;;;;;;;;17.50;99.90;;;;;;5109719;28;19928;-76
2023/07/01 01:45:58;;;;;;;;;;;17.40;99.90;;;;;;5104210;28;19928;-75
2023/07/01 01:48:27;;;;;;;;;;;17.40;99.90;;;;;;5095340;28;20338;-77
2023/07/01 01:50:53;;;;;;;;;;;17.40;99.90;;;;;;5076557;28;19955;-78
2023/07/01 01:53:19;;;;;;;;;;;17.30;99.90;;;;;;5100684;28;19920;-79
2023/07/01 01:55:45;;;;;;;;;;;17.20;99.90;;;;;;5120459;28;19923;-78
2023/07/01 01:58:11;;;;;;;;;;;17.10;99.90;;;;;;5115923;27;19927;-78
2023/07/01 02:00:37;;;;;;;;;;;17.00;99.90;;;;;;5103216;28;19924;-80
2023/07/01 02:03:02;;;;;;;;;;;16.90;99.90;;;;;;5114368;28;20021;-77
2023/07/01 02:05:28;;;;;;;;;;;16.80;99.90;;;;;;5105250;28;19927;-77
2023/07/01 02:07:54;;;;;;;;;;;16.80;99.90;;;;;;5100839;28;20018;-78
2023/07/01 02:10:20;;;;;;;;;;;16.70;99.90;;;;;;5097447;28;19961;-79
2023/07/01 02:12:46;;;;;;;;;;;16.60;99.90;;;;;;5090578;28;20015;-78
2023/07/01 02:15:11;;;;;;;;;;;16.60;99.90;;;;;;5083954;28;20112;-79
2023/07/01 02:17:37;;;;;;;;;;;16.60;99.90;;;;;;5110811;28;20002;-78
2023/07/01 02:20:03;;;;;;;;;;;16.50;99.90;;;;;;5081024;28;19924;-78
2023/07/01 02:22:29;;;;;;;;;;;16.50;99.90;;;;;;5072871;28;20399;-78
2023/07/01 02:24:55;;;;;;;;;;;16.40;99.90;;;;;;5105084;28;19923;-77
2023/07/01 02:27:21;;;;;;;;;;;16.40;99.90;;;;;;5098099;28;20262;-79
2023/07/01 02:29:47;;;;;;;;;;;16.40;99.90;;;;;;5109313;28;19919;-78
2023/07/01 02:32:13;;;;;;;;;;;16.40;99.90;;;;;;5111418;27;20338;-79
2023/07/01 02:34:39;;;;;;;;;;;16.40;99.90;;;;;;5104883;27;20334;-77
2023/07/01 02:37:04;;;;;;;;;;;16.40;99.90;;;;;;5111578;28;20405;-78
2023/07/01 02:39:30;;;;;;;;;;;16.40;99.90;;;;;;5113325;28;20271;-78
2023/07/01 02:41:55;;;;;;;;;;;16.40;99.90;;;;;;5104181;28;20024;-80
2023/07/01 02:44:21;;;;;;;;;;;16.40;99.90;;;;;;5084114;28;19992;-77
2023/07/01 02:46:47;;;;;;;;;;;16.40;99.90;;;;;;5110378;27;19920;-76
2023/07/01 02:49:12;;;;;;;;;;;16.40;99.90;;;;;;5115620;28;20079;-77
2023/07/01 02:51:38;;;;;;;;;;;16.40;99.90;;;;;;5122674;27;19982;-78
2023/07/01 02:54:04;;;;;;;;;;;16.40;99.90;;;;;;5115690;28;19919;-77
2023/07/01 02:56:29;;;;;;;;;;;16.40;99.90;;;;;;5086133;28;19930;-77
2023/07/01 02:58:55;;;;;;;;;;;16.40;99.90;;;;;;5107922;28;19966;-78
2023/07/01 03:01:20;;;;;;;;;;;16.50;99.90;;;;;;5078470;28;19920;-78
2023/07/01 03:03:49;;;;;;;;;;;16.50;99.90;;;;;;5100240;28;19946;-78
2023/07/01 03:06:15;;;;;;;;;;;16.60;99.90;;;;;;5111167;28;19931;-77
2023/07/01 03:08:41;;;;;;;;;;;16.60;99.90;;;;;;5131939;27;19920;-75
2023/07/01 03:11:10;;;;;;;;;;;16.60;99.90;;;;;;5101147;28;19974;-76
2023/07/01 03:13:38;;;;;;;;;;;16.60;99.90;;;;;;5110465;28;19924;-78
2023/07/01 03:16:06;;;;;;;;;;;16.60;99.90;;;;;;5107406;28;19952;-77
2023/07/01 03:18:35;;;;;;;;;;;16.70;99.90;;;;;;5116629;28;19920;-77
2023/07/01 03:21:00;;;;;;;;;;;16.60;99.90;;;;;;5107207;27;19974;-78
2023/07/01 03:23:26;;;;;;;;;;;16.70;99.90;;;;;;5112409;28;19920;-78
2023/07/01 03:25:52;;;;;;;;;;;16.70;99.90;;;;;;5108400;27;19920;-77
2023/07/01 03:28:17;;;;;;;;;;;16.60;99.90;;;;;;5105927;28;19920;-77
2023/07/01 03:30:43;;;;;;;;;;;16.60;99.90;;;;;;5110852;28;19928;-77
2023/07/01 03:33:12;;;;;;;;;;;16.60;99.90;;;;;;5109467;27;19926;-77
2023/07/01 03:35:38;;;;;;;;;;;16.50;99.90;;;;;;5114912;28;19993;-76
2023/07/01 03:38:03;;;;;;;;;;;16.50;99.90;;;;;;5094017;28;20289;-77
2023/07/01 03:40:29;;;;;;;;;;;16.40;99.90;;;;;;5109084;27;19926;-78
2023/07/01 03:42:54;;;;;;;;;;;16.40;99.90;;;;;;5115024;27;19974;-78
2023/07/01 03:45:20;;;;;;;;;;;16.40;99.90;;;;;;5100541;27;19988;-78
2023/07/01 03:47:45;;;;;;;;;;;16.40;99.90;;;;;;5115824;28;20022;-77
2023/07/01 03:50:14;;;;;;;;;;;16.50;99.90;;;;;;5090126;28;19952;-78
2023/07/01 03:52:40;;;;;;;;;;;16.30;99.90;;;;;;5092037;28;19920;-79
2023/07/01 03:55:06;;;;;;;;;;;16.40;99.90;;;;;;5122429;27;19924;-77
2023/07/01 03:57:32;;;;;;;;;;;16.40;99.90;;;;;;5109985;27;19919;-78
2023/07/01 03:59:58;;;;;;;;;;;16.40;99.90;;;;;;5111101;27;20359;-77
2023/07/01 04:02:23;;;;;;;;;;;16.40;99.90;;;;;;5118083;27;19929;-77
2023/07/01 04:04:49;;;;;;;;;;;16.40;99.90;;;;;;5113736;28;19931;-77
2023/07/01 04:07:15;;;;;;;;;;;16.30;99.90;;;;;;5124454;28;19923;-78
2023/07/01 04:09:41;;;;;;;;;;;16.40;99.90;;;;;;5120448;28;19926;-76
2023/07/01 04:12:07;;;;;;;;;;;16.40;99.90;;;;;;5106054;28;19927;-79
2023/07/01 04:14:33;;;;;;;;;;;16.30;99.90;;;;;;5075783;27;19931;-77
2023/07/01 04:16:58;;;;;;;;;;;16.40;99.90;;;;;;5110401;28;19920;-76
2023/07/01 04:19:24;;;;;;;;;;;16.30;99.90;;;;;;5108691;27;19920;-78
2023/07/01 04:21:49;;;;;;;;;;;16.30;99.90;;;;;;5071334;28;19980;-77
2023/07/01 04:24:15;;;;;;;;;;;16.40;99.90;;;;;;5081485;28;19928;-78
2023/07/01 04:26:44;;;;;;;;;;;15.90;99.90;;;;;;5102121;28;19969;-78
2023/07/01 04:29:10;;;;;;;;;;;16.40;99.90;;;;;;5110978;28;19930;-77
2023/07/01 04:31:35;;;;;;;;;;;16.40;99.90;;;;;;5103432;28;19970;-78
2023/07/01 04:34:01;;;;;;;;;;;16.40;99.90;;;;;;5082850;28;19920;-78
2023/07/01 04:36:26;;;;;;;;;;;16.40;99.90;;;;;;5111423;27;19927;-77
2023/07/01 04:38:52;;;;;;;;;;;16.40;99.90;;;;;;5100354;28;20027;-77
2023/07/01 04:41:18;;;;;;;;;;;16.40;99.90;;;;;;5096527;28;19920;-76
2023/07/01 04:43:44;;;;;;;;;;;16.50;99.90;;;;;;5097987;28;19927;-77
2023/07/01 04:46:09;;;;;;;;;;;16.50;99.90;;;;;;5109174;28;19920;-77
2023/07/01 04:48:35;;;;;;;;;;;16.40;99.90;;;;;;5088500;28;19923;-79
2023/07/01 04:51:00;;;;;;;;;;;16.60;99.90;;;;;;5131101;27;20381;-79
2023/07/01 04:53:26;;;;;;;;;;;16.50;99.90;;;;;;5084496;28;20352;-78
2023/07/01 04:55:51;;;;;;;;;;;16.50;99.90;;;;;;5088957;28;19919;-77
2023/07/01 04:58:18;;;;;;;;;;;16.60;99.90;;;;;;5108664;27;19923;-75
2023/07/01 05:00:44;;;;;;;;;;;16.60;99.90;;;;;;5064194;28;20385;-76
2023/07/01 05:03:09;;;;;;;;;;;16.60;99.90;;;;;;5105950;28;19926;-76
2023/07/01 05:05:35;;;;;;;;;;;16.60;99.90;;;;;;5112451;27;19924;-76
2023/07/01 05:08:01;;;;;;;;;;;16.70;99.90;;;;;;5078751;28;19927;-77
2023/07/01 05:10:26;;;;;;;;;;;16.70;99.90;;;;;;5086811;28;19924;-78
2023/07/01 05:12:52;;;;;;;;;;;16.70;99.90;;;;;;5089949;28;19920;-77
2023/07/01 05:15:17;;;;;;;;;;;16.70;99.90;;;;;;5101040;28;19919;-76
2023/07/01 05:17:43;;;;;;;;;;;16.70;99.90;;;;;;5109851;28;19920;-76
2023/07/01 05:20:09;;;;;;;;;;;16.70;99.90;;;;;;5116594;27;20369;-76
2023/07/01 05:22:35;;;;;;;;;;;16.70;99.90;;;;;;5111226;28;19924;-78
2023/07/01 05:25:01;;;;;;;;;;;16.70;99.90;;;;;;5093783;28;19919;-77
2023/07/01 05:27:27;;;;;;;;;;;16.80;99.90;;;;;;5090359;28;20282;-77
2023/07/01 05:29:52;;;;;;;;;;;16.80;99.90;;;;;;5104792;28;19919;-77
2023/07/01 05:32:18;;;;;;;;;;;16.80;99.90;;;;;;5098377;28;20389;-78
2023/07/01 05:34:43;;;;;;;;;;;16.80;99.90;;;;;;5106673;28;20274;-76
2023/07/01 05:37:09;;;;;;;;;;;16.80;99.90;;;;;;5075816;28;20018;-77
2023/07/01 05:39:35;;;;;;;;;;;16.80;99.90;;;;;;5082950;28;19947;-76
2023/07/01 05:42:00;;;;;;;;;;;16.80;99.90;;;;;;5077107;28;19920;-77
2023/07/01 05:44:26;;;;;;;;;;;16.90;99.90;;;;;;5107474;28;19919;-79
2023/07/01 05:46:52;;;;;;;;;;;16.90;99.90;;;;;;5084612;28;19927;-76
2023/07/01 05:49:18;;;;;;;;;;;16.90;99.90;;;;;;5095882;28;19919;-77
2023/07/01 05:51:44;;;;;;;;;;;16.90;99.90;;;;;;5098838;28;19920;-75
2023/07/01 05:54:09;;;;;;;;;;;16.90;99.90;;;;;;5110078;28;19973;-77
2023/07/01 05:56:35;;;;;;;;;;;16.90;99.90;;;;;;5090939;28;19959;-76
2023/07/01 05:59:01;;;;;;;;;;;17.00;99.90;;;;;;5107384;27;19965;-76
2023/07/01 06:01:27;;;;;;;;;;;17.00;99.90;;;;;;5105256;28;19928;-77
2023/07/01 06:03:53;;;;;;;;;;;17.00;99.90;;;;;;5101622;28;19924;-77
2023/07/01 06:06:18;;;;;;;;;;;17.00;99.90;;;;;;5110564;28;20266;-76
2023/07/01 06:08:44;;;;;;;;;;;17.00;99.90;;;;;;5084490;28;19959;-77
2023/07/01 06:11:09;;;;;;;;;;;17.00;99.90;;;;;;5087534;28;19941;-77
2023/07/01 06:13:36;;;;;;;;;;;17.10;99.90;;;;;;5102347;28;20295;-77
2023/07/01 06:16:02;;;;;;;;;;;17.10;99.90;;;;;;5087077;28;19927;-77
2023/07/01 06:18:27;;;;;;;;;;;17.10;99.90;;;;;;5108587;28;19920;-76
2023/07/01 06:20:56;;;;;;;;;;;17.10;99.90;;;;;;5105462;27;20388;-77
2023/07/01 06:23:21;;;;;;;;;;;17.10;99.90;;;;;;5103331;28;19927;-78
2023/07/01 06:25:47;;;;;;;;;;;17.10;99.90;;;;;;5108623;27;19931;-77
2023/07/01 06:28:12;;;;;;;;;;;17.10;99.90;;;;;;5089467;28;20411;-80
2023/07/01 06:30:39;;;;;;;;;;;17.00;99.90;;;;;;5107149;27;19920;-78
2023/07/01 06:33:06;;;;;;;;;;;17.00;99.90;;;;;;5110657;28;19920;-79
2023/07/01 06:35:32;;;;;;;;;;;17.00;99.90;;;;;;5125430;27;20396;-78
2023/07/01 06:37:58;;;;;;;;;;;16.90;99.90;;;;;;5132485;27;19919;-77
2023/07/01 06:40:23;;;;;;;;;;;16.90;99.90;;;;;;5114067;27;19946;-79
2023/07/01 06:42:49;;;;;;;;;;;16.90;99.90;;;;;;5105262;28;20379;-79
2023/07/01 06:45:17;;;;;;;;;;;16.90;99.90;;;;;;5114547;27;19919;-78
2023/07/01 06:47:43;;;;;;;;;;;16.90;99.90;;;;;;5090169;28;19920;-77
2023/07/01 06:50:09;;;;;;;;;;;16.90;99.90;;;;;;5085522;28;19920;-77
2023/07/01 06:52:34;;;;;;;;;;;16.90;99.90;;;;;;5106619;27;19919;-77
2023/07/01 06:55:03;;;;;;;;;;;16.90;99.90;;;;;;5110244;27;19920;-78
2023/07/01 06:57:30;;;;;;;;;;;16.90;99.90;;;;;;5100683;28;19927;-79
2023/07/01 06:59:55;;;;;;;;;;;16.90;99.90;;;;;;5114189;28;19962;-77
2023/07/01 07:02:21;;;;;;;;;;;16.90;99.90;;;;;;5109317;28;19966;-77
2023/07/01 07:04:46;;;;;;;;;;;16.90;99.90;;;;;;5089362;28;19924;-76
2023/07/01 07:07:12;;;;;;;;;;;16.90;99.90;;;;;;5101127;27;19927;-78
2023/07/01 07:09:37;;;;;;;;;;;16.90;99.90;;;;;;5117693;27;19934;-77
2023/07/01 07:12:03;;;;;;;;;;;16.90;99.90;;;;;;5105643;28;19927;-78
2023/07/01 07:14:29;;;;;;;;;;;16.90;99.90;;;;;;5113107;27;19920;-77
2023/07/01 07:16:54;;;;;;;;;;;16.90;99.90;;;;;;5106755;27;19932;-78
2023/07/01 07:19:20;;;;;;;;;;;16.90;99.90;;;;;;5108712;27;20060;-78
2023/07/01 07:21:45;;;;;;;;;;;16.90;99.90;;;;;;5097975;28;20014;-76
2023/07/01 07:24:11;;;;;;;;;;;16.90;99.90;;;;;;5103786;27;19926;-77
2023/07/01 07:26:37;;;;;;;;;;;16.90;99.90;;;;;;5101784;27;19920;-77
2023/07/01 07:29:03;;;;;;;;;;;16.90;99.90;;;;;;5101989;28;20323;-77
2023/07/01 07:31:31;;;;;;;;;;;17.00;99.90;;;;;;5110914;28;19923;-78
2023/07/01 07:33:57;;;;;;;;;;;16.90;99.90;;;;;;5107947;27;19920;-77
2023/07/01 07:36:22;;;;;;;;;;;17.00;99.90;;;;;;5104056;27;19926;-78
2023/07/01 07:38:48;;;;;;;;;;;17.00;99.90;;;;;;5114248;28;19919;-78
2023/07/01 07:41:13;;;;;;;;;;;17.00;99.90;;;;;;5107632;28;20356;-77
2023/07/01 07:43:39;;;;;;;;;;;17.10;99.90;;;;;;5117778;27;19919;-78
2023/07/01 07:46:04;;;;;;;;;;;17.10;99.90;;;;;;5103075;28;20381;-77
2023/07/01 07:48:30;;;;;;;;;;;17.10;99.90;;;;;;5112648;28;19920;-77
2023/07/01 07:50:56;;;;;;;;;;;17.10;99.90;;;;;;5080694;28;19920;-78
2023/07/01 07:53:21;;;;;;;;;;;17.10;99.90;;;;;;5125718;27;19920;-78
2023/07/01 07:55:47;;;;;;;;;;;17.20;99.90;;;;;;5099243;28;19931;-77
2023/07/01 07:58:13;;;;;;;;;;;17.20;99.90;;;;;;5107002;28;19955;-77
2023/07/01 08:00:39;;;;;;;;;;;17.20;99.90;;;;;;5099897;27;20381;-77
2023/07/01 08:03:04;;;;;;;;;;;17.30;99.90;;;;;;5104836;28;19920;-79
2023/07/01 08:05:30;;;;;;;;;;;17.40;99.90;;;;;;5107045;28;20380;-77
2023/07/01 08:07:56;;;;;;;;;;;17.40;99.90;;;;;;5096367;28;20004;-77
2023/07/01 08:10:21;;;;;;;;;;;17.50;99.90;;;;;;5116168;27;19920;-78
2023/07/01 08:12:47;;;;;;;;;;;17.50;99.90;;;;;;5099544;28;19919;-77
2023/07/01 08:15:12;;;;;;;;;;;17.60;99.90;;;;;;5097361;28;19927;-77
2023/07/01 08:17:38;;;;;;;;;;;17.70;99.90;;;;;;5090976;27;19923;-78
2023/07/01 08:20:04;;;;;;;;;;;17.70;99.90;;;;;;5112206;28;20024;-79
2023/07/01 08:22:30;;;;;;;;;;;17.70;99.90;;;;;;5112279;28;20341;-78
2023/07/01 08:24:56;;;;;;;;;;;17.70;99.90;;;;;;5115919;28;19923;-78
2023/07/01 08:27:21;;;;;;;;;;;17.70;99.90;;;;;;5098745;28;19927;-77
2023/07/01 08:29:47;;;;;;;;;;;17.70;99.90;;;;;;5082292;28;19928;-78
2023/07/01 08:32:12;;;;;;;;;;;17.70;99.90;;;;;;5091541;28;19919;-78
2023/07/01 08:34:38;;;;;;;;;;;17.70;99.90;;;;;;5108578;27;19920;-77
2023/07/01 08:37:03;;;;;;;;;;;17.70;99.90;;;;;;5106689;28;20080;-77
2023/07/01 08:39:29;;;;;;;;;;;17.70;99.90;;;;;;5085180;28;20294;-79
2023/07/01 08:41:56;;;;;;;;;;;17.70;99.90;;;;;;5114357;27;19923;-77
2023/07/01 08:44:23;;;;;;;;;;;17.80;99.90;;;;;;5103723;28;19965;-77
2023/07/01 08:46:51;;;;;;;;;;;17.80;99.90;;;;;;5094396;28;19935;-77
2023/07/01 08:49:19;;;;;;;;;;;18.00;99.90;;;;;;5108615;28;19920;-79
2023/07/01 08:51:45;;;;;;;;;;;18.00;99.90;;;;;;5114379;27;19924;-76
2023/07/01 08:54:12;;;;;;;;;;;18.10;99.90;;;;;;5115473;28;20329;-76
2023/07/01 08:56:37;;;;;;;;;;;18.10;99.90;;;;;;5089070;28;19920;-78
2023/07/01 08:59:04;;;;;;;;;;;18.30;99.90;;;;;;5101514;28;19920;-76
2023/07/01 09:01:30;;;;;;;;;;;18.30;99.90;;;;;;5103948;28;19920;-78
2023/07/01 09:03:55;;;;;;;;;;;18.30;99.90;;;;;;5091936;28;19981;-77
2023/07/01 09:06:21;;;;;;;;;;;18.30;99.90;;;;;;5117334;28;20383;-77
2023/07/01 09:08:47;;;;;;;;;;;18.40;99.90;;;;;;5107928;28;19920;-78
2023/07/01 09:11:14;;;;;;;;;;;18.40;99.90;;;;;;5097844;28;19920;-77
2023/07/01 09:13:40;;;;;;;;;;;18.40;99.90;;;;;;5067638;28;20033;-79
2023/07/01 09:16:06;;;;;;;;;;;18.50;99.90;;;;;;5097968;28;19964;-77
2023/07/01 09:18:32;;;;;;;;;;;18.60;99.90;;;;;;5103610;28;19923;-77
2023/07/01 09:20:58;;;;;;;;;;;18.60;99.90;;;;;;5086129;28;20031;-76
2023/07/01 09:23:27;;;;;;;;;;;18.70;99.90;;;;;;5084076;28;19920;-76
2023/07/01 09:26:14;;;;;;;;;;;18.70;99.90;;;;;;5104056;28;19952;-74
2023/07/01 09:28:41;;;;;;;;;;;18.70;99.90;;;;;;5101110;28;20066;-76
2023/07/01 09:31:11;;;;;;;;;;;18.70;99.90;;;;;;5085604;28;20432;-77
2023/07/01 09:33:37;;;;;;;;;;;18.80;99.90;;;;;;5109891;28;19920;-76
2023/07/01 09:36:03;;;;;;;;;;;18.80;99.90;;;;;;5106703;28;19926;-75
2023/07/01 09:38:29;;;;;;;;;;;18.90;99.90;;;;;;5096107;28;19920;-77
2023/07/01 09:40:54;;;;;;;;;;;18.90;99.90;;;;;;5096469;28;19920;-77
2023/07/01 09:43:30;;;;;;;;;;;18.90;99.90;;;;;;5091690;28;20022;-76
2023/07/01 09:45:56;;;;;;;;;;;18.90;99.90;;;;;;5106146;28;19935;-74
2023/07/01 09:48:22;;;;;;;;;;;18.90;99.90;;;;;;5093527;28;19930;-76
2023/07/01 09:50:50;;;;;;;;;;;18.90;99.90;;;;;;5108329;28;19930;-75
2023/07/01 09:53:23;;;;;;;;;;;18.90;99.90;;;;;;5115828;28;19920;-76
2023/07/01 09:55:48;;;;;;;;;;;18.90;99.90;;;;;;5105626;28;19949;-75
2023/07/01 09:58:15;;;;;;;;;;;18.90;99.90;;;;;;5105883;28;20264;-74
2023/07/01 10:00:41;;;;;;;;;;;18.90;99.90;;;;;;5100975;28;19920;-76
2023/07/01 10:03:07;;;;;;;;;;;19.00;99.90;;;;;;5105900;28;20485;-76
2023/07/01 10:05:33;;;;;;;;;;;19.10;99.90;;;;;;5089841;28;20120;-75
2023/07/01 10:07:58;;;;;;;;;;;19.10;99.90;;;;;;5098220;28;19920;-75
2023/07/01 10:10:24;;;;;;;;;;;19.20;99.90;;;;;;5101444;28;20343;-75
2023/07/01 10:12:51;;;;;;;;;;;19.20;99.90;;;;;;5104314;28;20411;-75
2023/07/01 10:15:18;;;;;;;;;;;19.20;99.90;;;;;;5106086;28;20041;-77
2023/07/01 10:17:45;;;;;;;;;;;19.20;99.90;;;;;;5100862;28;19932;-78
2023/07/01 10:20:29;;;;;;;;;;;19.10;99.90;;;;;;5087959;28;19935;-77
2023/07/01 10:22:56;;;;;;;;;;;19.10;99.90;;;;;;5103075;28;20288;-78
2023/07/01 10:25:39;;;;;;;;;;;19.20;99.90;;;;;;5103239;28;19927;-77
2023/07/01 10:28:11;;;;;;;;;;;19.10;99.90;;;;;;5104429;28;20416;-78
2023/07/01 10:30:42;;;;;;;;;;;19.00;99.90;;;;;;5105055;28;19926;-78
2023/07/01 10:33:26;;;;;;;;;;;19.00;99.90;;;;;;5114656;28;19935;-77
2023/07/01 10:36:01;;;;;;;;;;;19.00;99.90;;;;;;5117171;28;19927;-78
2023/07/01 10:38:26;;;;;;;;;;;19.10;99.90;;;;;;5096377;28;19920;-77
2023/07/01 10:40:52;;;;;;;;;;;19.20;99.90;;;;;;5107669;28;20297;-77
2023/07/01 10:43:18;;;;;;;;;;;19.30;99.90;;;;;;5109731;28;19920;-77
2023/07/01 10:45:43;;;;;;;;;;;19.40;99.90;;;;;;5104274;28;19973;-76
2023/07/01 10:48:13;;;;;;;;;;;19.50;99.90;;;;;;5106067;27;19920;-77
2023/07/01 10:51:02;;;;;;;;;;;19.50;99.90;;;;;;5105394;27;20404;-76
2023/07/01 10:53:28;;;;;;;;;;;19.60;99.90;;;;;;5095131;27;19920;-77
2023/07/01 10:56:08;;;;;;;;;;;19.60;99.90;;;;;;5120533;27;20374;-77
2023/07/01 10:58:34;;;;;;;;;;;19.50;99.90;;;;;;5103945;27;19970;-77
2023/07/01 11:01:01;;;;;;;;;;;19.40;99.90;;;;;;5110226;27;20297;-78
2023/07/01 11:03:38;;;;;;;;;;;19.40;99.90;;;;;;5110163;27;19923;-78
2023/07/01 11:06:04;;;;;;;;;;;19.30;99.90;;;;;;5098895;28;19919;-78
2023/07/01 11:08:31;;;;;;;;;;;19.20;99.90;;;;;;5110781;27;19924;-79
2023/07/01 11:10:56;;;;;;;;;;;19.10;99.90;;;;;;5110812;27;20377;-78
2023/07/01 11:13:22;;;;;;;;;;;19.00;99.90;;;;;;5102848;27;19927;-79
2023/07/01 11:16:04;;;;;;;;;;;18.80;99.90;;;;;;5112569;27;19930;-80
2023/07/01 11:18:39;;;;;;;;;;;18.80;99.90;;;;;;5120346;27;19935;-79
2023/07/01 11:21:05;;;;;;;;;;;18.70;99.90;;;;;;5091344;28;19924;-78
2023/07/01 11:23:30;;;;;;;;;;;18.80;99.90;;;;;;5103408;28;19935;-78
2023/07/01 11:25:56;;;;;;;;;;;18.90;99.90;;;;;;5109865;27;19919;-78
2023/07/01 11:28:34;;;;;;;;;;;19.10;99.90;;;;;;5120116;27;19925;-79
2023/07/01 11:31:14;;;;;;;;;;;19.20;99.90;;;;;;5110280;28;19919;-78
2023/07/01 11:33:53;;;;;;;;;;;19.30;99.90;;;;;;5087644;28;20082;-78
2023/07/01 11:36:20;;;;;;;;;;;19.40;99.90;;;;;;5102472;28;19927;-78
2023/07/01 11:38:49;;;;;;;;;;;19.40;99.90;;;;;;5105307;27;19920;-78
2023/07/01 11:41:16;;;;;;;;;;;19.30;99.90;;;;;;5107056;27;20350;-79
2023/07/01 11:43:42;;;;;;;;;;;19.20;99.90;;;;;;5109217;27;19943;-77
2023/07/01 11:46:09;;;;;;;;;;;19.20;99.90;;;;;;5100079;28;19998;-78
2023/07/01 11:48:34;;;;;;;;;;;19.10;99.90;;;;;;5110798;28;19928;-78
2023/07/01 11:51:04;;;;;;;;;;;19.10;99.90;;;;;;5104853;27;19927;-78
2023/07/01 11:53:32;;;;;;;;;;;19.10;99.90;;;;;;5108194;27;19934;-79
2023/07/01 11:55:58;;;;;;;;;;;19.10;99.90;;;;;;5105999;27;19920;-78
2023/07/01 11:58:31;;;;;;;;;;;19.20;99.90;;;;;;5097304;28;20003;-79
2023/07/01 12:00:57;;;;;;;;;;;19.20;99.90;;;;;;5108904;28;19944;-79
2023/07/01 12:03:22;;;;;;;;;;;19.30;99.90;;;;;;5082906;28;19987;-78
2023/07/01 12:05:48;;;;;;;;;;;19.50;99.90;;;;;;5104649;27;19920;-77
2023/07/01 12:08:16;;;;;;;;;;;19.70;99.90;;;;;;5106127;27;20117;-77
2023/07/01 12:10:42;;;;;;;;;;;19.90;99.90;;;;;;5102372;28;20020;-79
2023/07/01 12:13:08;;;;;;;;;;;19.90;99.90;;;;;;5105462;28;19946;-79
2023/07/01 12:15:52;;;;;;;;;;;20.00;99.90;;;;;;5100073;28;20270;-78
2023/07/01 12:18:21;;;;;;;;;;;20.00;99.90;;;;;;5106198;27;19919;-77
2023/07/01 12:20:47;;;;;;;;;;;19.90;99.90;;;;;;5106589;27;19927;-78
2023/07/01 12:23:13;;;;;;;;;;;20.00;99.90;;;;;;5093545;28;19930;-77
2023/07/01 12:25:38;;;;;;;;;;;20.10;99.90;;;;;;5112267;27;20292;-79
2023/07/01 12:28:05;;;;;;;;;;;20.10;99.90;;;;;;5104418;28;20281;-78
2023/07/01 12:30:30;;;;;;;;;;;20.20;99.90;;;;;;5104332;28;19936;-77
2023/07/01 12:32:56;;;;;;;;;;;20.30;99.90;;;;;;5108897;28;19942;-78
2023/07/01 12:35:22;;;;;;;;;;;20.40;99.90;;;;;;5112665;28;20330;-77
2023/07/01 12:37:48;;;;;;;;;;;20.60;99.90;;;;;;5112482;28;19919;-78
2023/07/01 12:40:13;;;;;;;;;;;20.80;99.90;;;;;;5115609;28;20034;-77
2023/07/01 12:42:39;;;;;;;;;;;20.90;99.90;;;;;;5110580;28;20273;-78
2023/07/01 12:45:05;;;;;;;;;;;21.00;99.90;;;;;;5072955;28;20389;-77
2023/07/01 12:47:31;;;;;;;;;;;21.00;99.90;;;;;;5109872;27;19988;-77
2023/07/01 12:49:57;;;;;;;;;;;21.10;99.90;;;;;;5102207;28;20361;-77
2023/07/01 12:52:25;;;;;;;;;;;21.10;99.90;;;;;;5096244;28;19942;-80
2023/07/01 12:54:52;;;;;;;;;;;21.00;99.90;;;;;;5121786;28;20003;-77
2023/07/01 12:57:18;;;;;;;;;;;21.00;99.90;;;;;;5073662;28;19969;-79
2023/07/01 12:59:44;;;;;;;;;;;20.90;99.90;;;;;;5075133;28;20375;-77
2023/07/01 13:02:11;;;;;;;;;;;20.90;99.90;;;;;;5063215;28;19936;-79
2023/07/01 13:04:39;;;;;;;;;;;20.80;99.90;;;;;;5060132;28;20397;-77
2023/07/01 13:07:15;;;;;;;;;;;20.90;99.90;;;;;;5059283;28;19920;-78
2023/07/01 13:09:47;;;;;;;;;;;21.00;99.90;;;;;;5056959;28;19917;-75
2023/07/01 13:12:12;;;;;;;;;;;21.10;99.90;;;;;;5055643;28;19927;-77
2023/07/01 13:14:38;;;;;;;;;;;21.20;99.90;;;;;;5068731;28;19999;-79
2023/07/01 13:17:04;;;;;;;;;;;21.10;99.90;;;;;;5067571;28;20374;-77
2023/07/01 13:19:29;;;;;;;;;;;20.90;99.90;;;;;;5065458;28;19921;-77
2023/07/01 13:21:54;;;;;;;;;;;20.90;99.90;;;;;;5073780;28;20499;-77
2023/07/01 13:24:20;;;;;;;;;;;20.70;99.90;;;;;;5070206;28;19973;-76
2023/07/01 13:26:46;;;;;;;;;;;20.70;99.90;;;;;;5068266;28;19924;-78
2023/07/01 13:29:13;;;;;;;;;;;20.60;99.90;;;;;;5064708;28;19928;-78
2023/07/01 13:31:40;;;;;;;;;;;20.50;99.90;;;;;;5064372;28;20367;-77
2023/07/01 13:34:06;;;;;;;;;;;20.40;99.90;;;;;;5061869;28;20145;-78
2023/07/01 13:36:37;;;;;;;;;;;20.30;99.90;;;;;;5069906;28;19924;-77
2023/07/01 13:39:09;;;;;;;;;;;20.20;99.90;;;;;;5065756;28;19920;-76
2023/07/01 13:41:35;;;;;;;;;;;20.10;99.90;;;;;;5065882;28;19927;-76
2023/07/01 13:44:08;;;;;;;;;;;20.10;99.90;;;;;;5058508;28;19929;-77
2023/07/01 13:46:36;;;;;;;;;;;20.10;99.90;;;;;;5067029;28;20014;-78
2023/07/01 13:49:02;;;;;;;;;;;20.00;99.90;;;;;;5068864;28;20439;-76
2023/07/01 13:51:45;;;;;;;;;;;20.00;99.90;;;;;;5071437;28;19920;-76
2023/07/01 13:54:16;;;;;;;;;;;19.90;99.90;;;;;;5068690;28;19920;-77
2023/07/01 13:56:42;;;;;;;;;;;19.90;99.90;;;;;;5059422;28;19991;-77
2023/07/01 13:59:07;;;;;;;;;;;19.80;99.90;;;;;;5070605;28;19924;-78
2023/07/01 14:01:34;;;;;;;;;;;19.80;99.90;;;;;;5064391;28;19924;-77
2023/07/01 14:04:00;;;;;;;;;;;19.70;99.90;;;;;;5073426;28;19924;-79
2023/07/01 14:06:29;;;;;;;;;;;19.70;99.90;;;;;;5058608;28;19925;-77
2023/07/01 14:08:56;;;;;;;;;;;19.60;99.90;;;;;;5064317;28;19921;-78
2023/07/01 14:11:24;;;;;;;;;;;19.50;99.90;;;;;;5070712;28;20697;-75
2023/07/01 14:13:50;;;;;;;;;;;19.50;99.90;;;;;;5059150;28;19920;-77